createdAt,value
2019-03-31T00:01:07.653Z,30.80
2019-03-31T00:03:52.701Z,30.80
2019-03-31T00:06:49.409Z,30.70
2019-03-31T00:09:45.654Z,30.70
2019-03-31T00:12:41.955Z,30.70
2019-03-31T00:15:38.540Z,30.70
2019-03-31T00:18:34.883Z,30.70
2019-03-31T00:21:31.362Z,30.70
2019-03-31T00:24:28.127Z,30.70
2019-03-31T00:27:24.341Z,30.60
2019-03-31T00:30:20.629Z,30.60
2019-03-31T00:33:17.214Z,30.60
2019-03-31T00:36:13.807Z,30.60
2019-03-31T00:39:11.531Z,30.60
2019-03-31T00:42:07.928Z,30.60
2019-03-31T00:45:04.758Z,30.50
2019-03-31T00:48:01.841Z,30.50
2019-03-31T00:50:58.141Z,30.50
2019-03-31T00:53:54.674Z,30.40
2019-03-31T00:56:50.970Z,30.40
2019-03-31T00:59:47.411Z,30.40
2019-03-31T01:02:44.434Z,30.30
2019-03-31T01:05:41.736Z,30.30
2019-03-31T01:08:38.967Z,30.30
2019-03-31T01:11:35.661Z,30.20
2019-03-31T01:14:32.640Z,30.20
2019-03-31T01:17:30.262Z,30.20
2019-03-31T01:20:26.855Z,30.20
2019-03-31T01:23:23.197Z,30.20
2019-03-31T01:26:21.269Z,30.30
2019-03-31T01:29:18.468Z,30.30
2019-03-31T01:32:15.379Z,30.30
2019-03-31T01:35:12.192Z,30.30
2019-03-31T01:38:09.957Z,30.30
2019-03-31T01:41:06.495Z,30.30
2019-03-31T01:44:02.876Z,30.40
2019-03-31T01:46:59.994Z,30.40
2019-03-31T01:49:56.596Z,30.40
2019-03-31T01:52:53.915Z,30.40
2019-03-31T01:55:50.851Z,30.40
2019-03-31T01:58:47.381Z,30.40
2019-03-31T02:01:43.941Z,30.40
2019-03-31T02:04:42.383Z,30.40
2019-03-31T02:07:39.167Z,30.50
2019-03-31T02:10:36.202Z,30.50
2019-03-31T02:13:33.247Z,30.50
2019-03-31T02:16:29.997Z,30.50
2019-03-31T02:19:27.145Z,30.60
2019-03-31T02:22:23.830Z,30.60
2019-03-31T02:25:20.228Z,30.60
2019-03-31T02:28:17.055Z,30.60
2019-03-31T02:31:14.826Z,30.70
2019-03-31T02:34:12.589Z,30.70
2019-03-31T02:37:10.580Z,30.80
2019-03-31T02:40:08.317Z,30.80
2019-03-31T02:43:04.655Z,30.80
2019-03-31T02:46:02.645Z,30.90
2019-03-31T02:48:59.316Z,30.90
2019-03-31T02:51:56.197Z,30.90
2019-03-31T02:54:52.588Z,31.00
2019-03-31T02:57:49.770Z,31.00
2019-03-31T03:00:47.197Z,31.10
2019-03-31T03:03:44.446Z,31.10
2019-03-31T03:06:41.935Z,31.20
2019-03-31T03:09:39.823Z,31.20
2019-03-31T03:12:38.414Z,31.30
2019-03-31T03:15:37.235Z,31.30
2019-03-31T03:18:35.231Z,31.40
2019-03-31T03:21:32.296Z,31.50
2019-03-31T03:24:29.063Z,31.50
2019-03-31T03:27:26.104Z,31.60
2019-03-31T03:30:22.925Z,31.70
2019-03-31T03:33:20.286Z,31.70
2019-03-31T03:36:18.073Z,31.80
2019-03-31T03:39:15.190Z,31.80
2019-03-31T03:42:11.636Z,31.90
2019-03-31T03:45:09.295Z,32.00
2019-03-31T03:48:07.482Z,32.00
2019-03-31T03:51:04.543Z,32.10
2019-03-31T03:54:01.049Z,32.20
2019-03-31T03:56:57.609Z,32.20
2019-03-31T03:59:54.405Z,32.30
2019-03-31T04:02:51.431Z,32.40
2019-03-31T04:05:48.906Z,32.40
2019-03-31T04:08:47.139Z,32.50
2019-03-31T04:11:44.532Z,32.50
2019-03-31T04:14:41.425Z,32.50
2019-03-31T04:17:37.909Z,32.60
2019-03-31T04:20:39.102Z,32.60
2019-03-31T04:23:31.732Z,32.70
2019-03-31T04:26:28.429Z,32.70
2019-03-31T04:29:25.053Z,32.80
2019-03-31T04:32:21.728Z,32.80
2019-03-31T04:35:18.745Z,32.90
2019-03-31T04:38:15.494Z,32.90
2019-03-31T04:41:12.635Z,33.00
2019-03-31T04:44:09.521Z,33.10
2019-03-31T04:47:06.054Z,33.20
2019-03-31T04:50:03.011Z,33.30
2019-03-31T04:52:59.647Z,33.40
2019-03-31T04:55:57.610Z,33.50
2019-03-31T04:58:54.512Z,33.60
2019-03-31T05:01:52.275Z,33.70
2019-03-31T05:04:48.880Z,33.80
2019-03-31T05:07:45.739Z,33.90
2019-03-31T05:10:42.737Z,34.00
2019-03-31T05:13:39.792Z,34.10
2019-03-31T05:16:36.681Z,34.20
2019-03-31T05:19:33.753Z,34.30
2019-03-31T05:22:30.000Z,34.30
2019-03-31T05:25:26.875Z,34.40
2019-03-31T05:28:24.538Z,34.50
2019-03-31T05:31:21.105Z,34.60
2019-03-31T05:34:19.294Z,34.70
2019-03-31T05:37:16.672Z,34.80
2019-03-31T05:40:13.743Z,34.90
2019-03-31T05:43:10.655Z,35.00
2019-03-31T05:46:08.892Z,35.00
2019-03-31T05:49:05.524Z,35.10
2019-03-31T05:52:02.230Z,35.20
2019-03-31T05:54:58.818Z,35.30
2019-03-31T05:57:55.576Z,35.30
2019-03-31T06:00:54.163Z,35.40
2019-03-31T06:03:50.220Z,35.50
2019-03-31T06:06:46.277Z,35.60
2019-03-31T06:09:42.525Z,35.70
2019-03-31T06:12:39.062Z,35.90
2019-03-31T06:15:35.683Z,36.00
2019-03-31T06:18:32.190Z,36.10
2019-03-31T06:21:29.268Z,36.20
2019-03-31T06:24:25.471Z,36.30
2019-03-31T06:27:21.560Z,36.30
2019-03-31T06:30:19.385Z,36.30
2019-03-31T06:33:16.816Z,36.40
2019-03-31T06:36:16.628Z,36.50
2019-03-31T06:39:14.309Z,36.60
2019-03-31T06:42:12.313Z,36.70
2019-03-31T06:45:11.128Z,36.80
2019-03-31T06:48:09.689Z,36.90
2019-03-31T06:51:06.507Z,37.00
2019-03-31T06:54:03.673Z,37.00
2019-03-31T06:57:01.668Z,37.10
2019-03-31T07:00:01.207Z,37.20
2019-03-31T07:02:59.733Z,37.30
2019-03-31T07:05:58.504Z,37.40
2019-03-31T07:08:55.527Z,37.40
2019-03-31T07:11:55.596Z,37.40
2019-03-31T07:14:54.611Z,37.40
2019-03-31T07:17:52.694Z,37.50
2019-03-31T07:20:49.933Z,37.60
2019-03-31T07:23:48.974Z,37.80
2019-03-31T07:26:47.129Z,37.90
2019-03-31T07:29:44.064Z,38.00
2019-03-31T07:32:40.898Z,38.10
2019-03-31T07:35:39.229Z,38.30
2019-03-31T07:38:39.293Z,38.40
2019-03-31T07:41:35.740Z,38.50
2019-03-31T07:44:33.233Z,38.50
2019-03-31T07:47:29.985Z,38.60
2019-03-31T07:50:28.915Z,38.70
2019-03-31T07:53:27.389Z,38.70
2019-03-31T07:56:25.241Z,38.70
2019-03-31T07:59:23.024Z,38.80
2019-03-31T08:02:19.785Z,38.90
2019-03-31T08:05:17.161Z,39.00
2019-03-31T08:08:13.776Z,39.10
2019-03-31T08:11:11.316Z,39.20
2019-03-31T08:14:10.611Z,39.40
2019-03-31T08:17:12.065Z,39.50
2019-03-31T08:20:12.692Z,39.70
2019-03-31T08:23:11.587Z,39.90
2019-03-31T08:26:08.181Z,40.00
2019-03-31T08:29:04.620Z,40.10
2019-03-31T08:32:01.683Z,40.30
2019-03-31T08:34:59.218Z,40.70
2019-03-31T08:38:00.223Z,41.00
2019-03-31T08:40:58.253Z,41.40
2019-03-31T08:43:57.649Z,41.80
2019-03-31T08:46:55.512Z,42.00
2019-03-31T08:49:55.698Z,42.30
2019-03-31T08:52:53.053Z,42.40
2019-03-31T08:55:49.498Z,42.50
2019-03-31T08:58:46.240Z,42.70
2019-03-31T09:01:43.296Z,42.90
2019-03-31T09:04:39.869Z,43.00
2019-03-31T09:07:36.358Z,43.10
2019-03-31T09:10:32.856Z,43.30
2019-03-31T09:13:29.752Z,43.40
2019-03-31T09:16:26.782Z,43.40
2019-03-31T09:19:23.477Z,43.60
2019-03-31T09:22:20.455Z,43.80
2019-03-31T09:25:18.600Z,43.80
2019-03-31T09:28:14.828Z,43.80
2019-03-31T09:31:12.880Z,43.90
2019-03-31T09:34:11.182Z,43.90
2019-03-31T09:37:08.952Z,43.90
2019-03-31T09:40:05.738Z,43.90
2019-03-31T09:43:03.247Z,43.90
2019-03-31T09:45:59.757Z,43.70
2019-03-31T09:48:56.787Z,43.50
2019-03-31T09:51:53.965Z,43.20
2019-03-31T09:54:50.699Z,42.90
2019-03-31T09:57:47.331Z,42.60
2019-03-31T10:00:52.537Z,42.30
2019-03-31T10:03:48.996Z,42.00
2019-03-31T10:06:46.066Z,41.70
2019-03-31T10:09:43.055Z,41.40
2019-03-31T10:12:39.224Z,41.10
2019-03-31T10:15:35.749Z,40.80
2019-03-31T10:18:31.896Z,40.60
2019-03-31T10:21:29.195Z,40.40
2019-03-31T10:24:25.754Z,40.10
2019-03-31T10:27:23.429Z,39.90
2019-03-31T10:30:21.221Z,39.70
2019-03-31T10:33:17.873Z,39.60
2019-03-31T10:36:15.467Z,39.50
2019-03-31T10:39:13.734Z,39.30
2019-03-31T10:42:10.797Z,39.20
2019-03-31T10:45:07.745Z,39.10
2019-03-31T10:48:19.280Z,38.80
2019-03-31T10:51:10.402Z,38.60
2019-03-31T10:54:18.907Z,38.40
2019-03-31T10:57:17.090Z,38.10
2019-03-31T11:00:15.794Z,37.60
2019-03-31T11:03:14.627Z,36.70
2019-03-31T11:06:12.389Z,35.60
2019-03-31T11:09:10.523Z,34.50
2019-03-31T11:12:08.946Z,33.60
2019-03-31T11:15:07.950Z,33.00
2019-03-31T11:18:06.135Z,32.70
2019-03-31T11:21:09.302Z,32.40
2019-03-31T11:24:07.269Z,32.20
2019-03-31T11:27:04.632Z,32.00
2019-03-31T11:30:18.068Z,31.90
2019-03-31T11:33:16.662Z,31.80
2019-03-31T11:36:16.321Z,31.80
2019-03-31T11:39:18.927Z,31.90
2019-03-31T11:42:21.353Z,31.90
2019-03-31T11:45:21.915Z,32.00
2019-03-31T11:48:19.179Z,32.10
2019-03-31T11:51:15.940Z,32.20
2019-03-31T11:54:14.249Z,32.30
2019-03-31T11:57:11.243Z,32.50
2019-03-31T12:00:08.350Z,32.60
2019-03-31T12:03:05.086Z,32.70
2019-03-31T12:06:01.825Z,32.80
2019-03-31T12:08:58.441Z,32.80
2019-03-31T12:11:55.223Z,32.90
2019-03-31T12:15:00.409Z,32.90
2019-03-31T12:17:48.695Z,33.00
2019-03-31T12:20:45.224Z,33.00
2019-03-31T12:23:46.152Z,33.00
2019-03-31T12:26:49.288Z,33.00
2019-03-31T12:29:47.482Z,33.00
2019-03-31T12:32:44.037Z,32.90
2019-03-31T12:35:42.621Z,32.90
2019-03-31T12:38:54.081Z,32.90
2019-03-31T12:41:52.258Z,32.80
2019-03-31T12:44:49.801Z,32.80
2019-03-31T12:47:47.060Z,32.80
2019-03-31T12:50:44.073Z,32.70
2019-03-31T12:53:42.457Z,32.60
2019-03-31T12:56:41.754Z,32.60
2019-03-31T12:59:52.843Z,32.50
2019-03-31T13:02:50.653Z,32.50
2019-03-31T13:05:47.434Z,32.40
2019-03-31T13:08:45.032Z,32.40
2019-03-31T13:11:44.829Z,32.40
2019-03-31T13:14:43.812Z,32.40
2019-03-31T13:17:40.734Z,32.50
2019-03-31T13:20:38.702Z,32.40
2019-03-31T13:23:36.376Z,32.40
2019-03-31T13:26:34.286Z,32.30
2019-03-31T13:29:31.015Z,32.30
2019-03-31T13:32:28.223Z,32.30
2019-03-31T13:35:26.169Z,32.20
2019-03-31T13:38:22.580Z,32.20
2019-03-31T13:41:18.997Z,32.20
2019-03-31T13:44:16.124Z,32.20
2019-03-31T13:47:12.691Z,32.10
2019-03-31T13:50:09.893Z,32.10
2019-03-31T13:53:06.989Z,32.10
2019-03-31T13:56:03.322Z,32.10
2019-03-31T13:59:00.518Z,32.10
2019-03-31T14:02:00.060Z,32.00
2019-03-31T14:04:54.737Z,32.00
2019-03-31T14:07:51.893Z,32.00
2019-03-31T14:10:48.404Z,32.00
2019-03-31T14:13:44.806Z,31.90
2019-03-31T14:16:41.952Z,31.90
2019-03-31T14:19:38.572Z,31.90
2019-03-31T14:22:35.027Z,31.90
2019-03-31T14:25:31.638Z,31.90
2019-03-31T14:28:28.223Z,31.90
2019-03-31T14:31:25.394Z,31.90
2019-03-31T14:34:21.939Z,31.80
2019-03-31T14:37:19.329Z,31.80
2019-03-31T14:40:17.731Z,31.80
2019-03-31T14:43:14.469Z,31.80
2019-03-31T14:46:11.135Z,31.80
2019-03-31T14:49:07.986Z,31.80
2019-03-31T14:52:04.438Z,31.80
2019-03-31T14:55:01.241Z,31.80
2019-03-31T14:57:58.061Z,31.70
2019-03-31T15:00:54.406Z,31.70
2019-03-31T15:03:50.973Z,31.70
2019-03-31T15:06:47.395Z,31.60
2019-03-31T15:09:44.125Z,31.60
2019-03-31T15:12:40.771Z,31.60
2019-03-31T15:15:37.156Z,31.60
2019-03-31T15:18:33.936Z,31.60
2019-03-31T15:21:30.949Z,31.60
2019-03-31T15:24:27.331Z,31.50
2019-03-31T15:27:25.437Z,31.50
2019-03-31T15:30:22.495Z,31.50
2019-03-31T15:33:19.499Z,31.50
2019-03-31T15:36:17.909Z,31.50
2019-03-31T15:39:14.930Z,31.50
2019-03-31T15:42:12.022Z,31.50
2019-03-31T15:45:10.182Z,31.50
2019-03-31T15:48:07.093Z,31.40
2019-03-31T15:51:03.636Z,31.40
2019-03-31T15:54:00.089Z,31.40
2019-03-31T15:56:56.699Z,31.40
2019-03-31T16:00:01.505Z,31.40
2019-03-31T16:02:58.084Z,31.30
2019-03-31T16:05:54.993Z,31.30
2019-03-31T16:08:51.910Z,31.30
2019-03-31T16:11:53.843Z,31.30
2019-03-31T16:14:44.062Z,31.30
2019-03-31T16:17:40.059Z,31.30
2019-03-31T16:20:35.237Z,31.20
2019-03-31T16:23:31.071Z,31.20
2019-03-31T16:26:26.607Z,31.20
2019-03-31T16:29:22.013Z,31.20
2019-03-31T16:32:18.310Z,31.20
2019-03-31T16:35:13.649Z,31.20
2019-03-31T16:38:09.438Z,31.20
2019-03-31T16:41:06.204Z,31.20
2019-03-31T16:44:01.682Z,31.10
2019-03-31T16:46:57.880Z,31.10
2019-03-31T16:49:53.456Z,31.10
2019-03-31T16:52:48.818Z,31.10
2019-03-31T16:55:44.144Z,31.10
2019-03-31T16:58:39.721Z,31.00
2019-03-31T17:01:37.052Z,31.10
2019-03-31T17:04:32.627Z,31.00
2019-03-31T17:07:28.206Z,31.00
2019-03-31T17:10:24.264Z,31.00
2019-03-31T17:13:19.973Z,31.00
2019-03-31T17:16:15.716Z,31.00
2019-03-31T17:19:11.720Z,30.90
2019-03-31T17:22:07.304Z,30.90
2019-03-31T17:25:03.083Z,30.90
2019-03-31T17:27:59.261Z,30.90
2019-03-31T17:30:54.503Z,30.90
2019-03-31T17:33:50.210Z,30.90
2019-03-31T17:36:45.867Z,30.80
2019-03-31T17:39:41.655Z,30.80
2019-03-31T17:42:37.536Z,30.80
2019-03-31T17:45:34.738Z,30.80
2019-03-31T17:48:30.165Z,30.80
2019-03-31T17:51:25.592Z,30.70
2019-03-31T17:54:21.081Z,30.70
2019-03-31T17:57:16.677Z,30.70
2019-03-31T18:00:13.774Z,30.70
2019-03-31T18:03:09.394Z,30.70
2019-03-31T18:06:05.303Z,30.70
2019-03-31T18:09:01.150Z,30.60
2019-03-31T18:11:56.900Z,30.60
2019-03-31T18:14:52.591Z,30.60
2019-03-31T18:17:48.812Z,30.60
2019-03-31T18:20:44.123Z,30.60
2019-03-31T18:23:41.269Z,30.60
2019-03-31T18:26:36.976Z,30.60
2019-03-31T18:29:32.778Z,30.60
2019-03-31T18:32:28.424Z,30.60
2019-03-31T18:35:23.450Z,30.50
2019-03-31T18:38:19.123Z,30.50
2019-03-31T18:41:14.659Z,30.50
2019-03-31T18:44:10.119Z,30.40
2019-03-31T18:47:06.734Z,30.40
2019-03-31T18:50:01.794Z,30.40
2019-03-31T18:52:57.703Z,30.40
2019-03-31T18:56:08.635Z,30.30
2019-03-31T18:59:20.275Z,30.30
2019-03-31T19:02:31.988Z,30.30
2019-03-31T19:05:47.991Z,30.20
2019-03-31T19:08:58.148Z,30.20
2019-03-31T19:12:11.000Z,30.20
2019-03-31T19:15:22.663Z,30.20
2019-03-31T19:18:35.774Z,30.20
2019-03-31T19:21:42.299Z,30.20
2019-03-31T19:24:46.178Z,30.10
2019-03-31T19:27:53.457Z,30.10
2019-03-31T19:31:06.771Z,30.10
2019-03-31T19:34:23.040Z,30.10
2019-03-31T19:37:29.483Z,30.10
2019-03-31T19:40:41.660Z,30.10
2019-03-31T19:43:46.565Z,30.10
2019-03-31T19:46:59.144Z,30.10
2019-03-31T19:50:06.042Z,30.00
2019-03-31T19:53:19.208Z,30.00
2019-03-31T19:56:31.841Z,30.00
2019-03-31T19:59:47.721Z,30.00
2019-03-31T20:02:50.466Z,30.00
2019-03-31T20:06:06.013Z,30.00
2019-03-31T20:09:18.090Z,29.90
2019-03-31T20:12:33.550Z,29.90
2019-03-31T20:15:46.497Z,29.90
2019-03-31T20:19:11.114Z,29.90
2019-03-31T20:22:20.776Z,29.90
2019-03-31T20:25:39.577Z,29.90
2019-03-31T20:28:40.923Z,29.80
2019-03-31T20:31:56.365Z,29.80
2019-03-31T20:35:05.464Z,29.80
2019-03-31T20:38:18.606Z,29.80
2019-03-31T20:41:33.674Z,29.80
2019-03-31T20:44:29.659Z,29.80
2019-03-31T20:47:25.087Z,29.70
2019-03-31T20:50:20.324Z,29.80
2019-03-31T20:53:15.663Z,29.80
2019-03-31T20:56:10.703Z,29.70
2019-03-31T20:59:06.074Z,29.70
2019-03-31T21:02:01.432Z,29.70
2019-03-31T21:04:57.185Z,29.70
2019-03-31T21:07:52.671Z,29.70
2019-03-31T21:10:48.277Z,29.70
2019-03-31T21:13:43.951Z,29.70
2019-03-31T21:16:39.536Z,29.60
2019-03-31T21:19:34.682Z,29.60
2019-03-31T21:22:30.098Z,29.60
2019-03-31T21:25:25.280Z,29.50
2019-03-31T21:28:20.446Z,29.50
2019-03-31T21:31:15.703Z,29.50
2019-03-31T21:34:11.550Z,29.50
2019-03-31T21:37:06.730Z,29.50
2019-03-31T21:40:01.830Z,29.50
2019-03-31T21:42:56.964Z,29.40
2019-03-31T21:45:53.093Z,29.40
2019-03-31T21:48:48.448Z,29.30
2019-03-31T21:51:44.005Z,29.30
2019-03-31T21:54:39.484Z,29.20
2019-03-31T21:57:35.370Z,29.20
2019-03-31T22:00:51.895Z,29.20
2019-03-31T22:03:47.568Z,29.20
2019-03-31T22:06:43.224Z,29.10
2019-03-31T22:09:38.799Z,29.10
2019-03-31T22:12:33.947Z,29.10
2019-03-31T22:15:29.532Z,29.10
2019-03-31T22:18:25.177Z,29.10
2019-03-31T22:21:21.089Z,29.00
2019-03-31T22:24:15.935Z,29.00
2019-03-31T22:27:11.679Z,29.00
2019-03-31T22:30:07.099Z,29.00
2019-03-31T22:33:02.739Z,29.00
2019-03-31T22:36:24.339Z,29.00
2019-03-31T22:39:19.765Z,28.90
2019-03-31T22:42:15.461Z,28.90
2019-03-31T22:45:11.113Z,28.90
2019-03-31T22:48:06.826Z,28.90
2019-03-31T22:51:02.599Z,28.90
2019-03-31T22:53:58.170Z,28.90
2019-03-31T22:56:53.446Z,28.90
2019-03-31T22:59:49.470Z,28.90
2019-03-31T23:02:44.875Z,28.90
2019-03-31T23:05:40.252Z,28.90
2019-03-31T23:08:36.587Z,28.90
2019-03-31T23:11:31.966Z,28.90
2019-03-31T23:14:27.319Z,28.90
2019-03-31T23:17:22.604Z,28.80
2019-03-31T23:20:18.225Z,28.80
2019-03-31T23:23:14.138Z,28.80
2019-03-31T23:26:09.743Z,28.80
2019-03-31T23:29:05.076Z,28.80
2019-03-31T23:32:01.067Z,28.80
2019-03-31T23:34:56.490Z,28.80
2019-03-31T23:37:52.202Z,28.80
2019-03-31T23:40:47.589Z,28.80
2019-03-31T23:43:42.824Z,28.80
2019-03-31T23:46:38.330Z,28.80
2019-03-31T23:49:34.331Z,28.90
2019-03-31T23:52:29.971Z,28.90
2019-03-31T23:55:25.615Z,28.80
2019-03-31T23:58:20.899Z,28.80
